sensor_id;sensor_type;location;lat;lon;timestamp;temperature;humidity
52899;DHT22;38763;53.096;6.062;2024-03-23T00:56:13;5.70;99.90
52899;DHT22;38763;53.096;6.062;2024-03-23T00:58:39;5.60;99.90
52899;DHT22;38763;53.096;6.062;2024-03-23T01:01:04;5.60;99.90
52899;DHT22;38763;53.096;6.062;2024-03-23T01:03:30;5.60;99.90
52899;DHT22;38763;53.096;6.062;2024-03-23T01:06:00;5.60;99.90
52899;DHT22;38763;53.096;6.062;2024-03-23T01:08:26;5.50;99.90
52899;DHT22;38763;53.096;6.062;2024-03-23T01:13:21;5.50;99.90
52899;DHT22;38763;53.096;6.062;2024-03-23T01:15:55;5.50;99.90
52899;DHT22;38763;53.096;6.062;2024-03-23T01:18:22;5.50;99.90
52899;DHT22;38763;53.096;6.062;2024-03-23T01:20:48;5.40;99.90
52899;DHT22;38763;53.096;6.062;2024-03-23T01:23:14;5.40;99.90
52899;DHT22;38763;53.096;6.062;2024-03-23T01:25:39;5.40;99.90
52899;DHT22;38763;53.096;6.062;2024-03-23T01:28:05;5.40;99.90
52899;DHT22;38763;53.096;6.062;2024-03-23T01:30:35;5.30;99.90
52899;DHT22;38763;53.096;6.062;2024-03-23T01:33:01;5.30;99.90
52899;DHT22;38763;53.096;6.062;2024-03-23T01:35:26;5.40;99.90
52899;DHT22;38763;53.096;6.062;2024-03-23T01:37:52;5.30;99.90
52899;DHT22;38763;53.096;6.062;2024-03-23T01:40:18;5.30;99.90
52899;DHT22;38763;53.096;6.062;2024-03-23T01:43:05;5.30;99.90
52899;DHT22;38763;53.096;6.062;2024-03-23T01:45:31;5.20;99.90
52899;DHT22;38763;53.096;6.062;2024-03-23T01:47:58;5.20;99.90
52899;DHT22;38763;53.096;6.062;2024-03-23T01:50:24;5.10;99.90
52899;DHT22;38763;53.096;6.062;2024-03-23T01:52:50;5.10;99.90
52899;DHT22;38763;53.096;6.062;2024-03-23T01:55:16;5.10;99.90
52899;DHT22;38763;53.096;6.062;2024-03-23T01:57:42;5.00;99.90
52899;DHT22;38763;53.096;6.062;2024-03-23T02:00:08;5.00;99.90
52899;DHT22;38763;53.096;6.062;2024-03-23T02:02:44;5.00;99.90
52899;DHT22;38763;53.096;6.062;2024-03-23T02:05:10;5.00;99.90
52899;DHT22;38763;53.096;6.062;2024-03-23T02:07:40;5.00;99.90
52899;DHT22;38763;53.096;6.062;2024-03-23T02:10:07;5.00;99.90
52899;DHT22;38763;53.096;6.062;2024-03-23T02:12:33;5.00;99.90
52899;DHT22;38763;53.096;6.062;2024-03-23T02:14:59;5.00;99.90
52899;DHT22;38763;53.096;6.062;2024-03-23T02:17:24;5.00;99.90
52899;DHT22;38763;53.096;6.062;2024-03-23T02:19:50;5.00;99.90
52899;DHT22;38763;53.096;6.062;2024-03-23T02:22:16;5.00;99.90
52899;DHT22;38763;53.096;6.062;2024-03-23T02:24:42;5.00;99.90
52899;DHT22;38763;53.096;6.062;2024-03-23T02:27:08;5.00;99.90
52899;DHT22;38763;53.096;6.062;2024-03-23T02:29:33;5.00;99.90
52899;DHT22;38763;53.096;6.062;2024-03-23T02:31:59;5.00;99.90
52899;DHT22;38763;53.096;6.062;2024-03-23T02:34:25;5.00;99.90
52899;DHT22;38763;53.096;6.062;2024-03-23T02:36:50;5.00;99.90
52899;DHT22;38763;53.096;6.062;2024-03-23T02:39:16;5.00;99.90
52899;DHT22;38763;53.096;6.062;2024-03-23T02:41:41;5.00;99.90
52899;DHT22;38763;53.096;6.062;2024-03-23T02:44:07;5.00;99.90
52899;DHT22;38763;53.096;6.062;2024-03-23T02:46:33;4.90;99.90
52899;DHT22;38763;53.096;6.062;2024-03-23T02:48:59;4.90;99.90
52899;DHT22;38763;53.096;6.062;2024-03-23T02:51:24;4.90;99.90
52899;DHT22;38763;53.096;6.062;2024-03-23T02:53:51;4.90;99.90
52899;DHT22;38763;53.096;6.062;2024-03-23T02:56:17;4.80;99.90
52899;DHT22;38763;53.096;6.062;2024-03-23T02:58:43;4.80;99.90
52899;DHT22;38763;53.096;6.062;2024-03-23T03:01:08;4.80;99.90
52899;DHT22;38763;53.096;6.062;2024-03-23T03:03:34;4.80;99.90
52899;DHT22;38763;53.096;6.062;2024-03-23T03:05:59;4.80;99.90
52899;DHT22;38763;53.096;6.062;2024-03-23T03:08:25;4.80;99.90
52899;DHT22;38763;53.096;6.062;2024-03-23T03:10:51;4.70;99.90
52899;DHT22;38763;53.096;6.062;2024-03-23T03:13:16;4.70;99.90
52899;DHT22;38763;53.096;6.062;2024-03-23T03:15:46;4.70;99.90
52899;DHT22;38763;53.096;6.062;2024-03-23T03:18:12;4.70;99.90
52899;DHT22;38763;53.096;6.062;2024-03-23T03:20:40;4.60;99.90
52899;DHT22;38763;53.096;6.062;2024-03-23T03:23:07;4.60;99.90
52899;DHT22;38763;53.096;6.062;2024-03-23T03:25:33;4.60;99.90
52899;DHT22;38763;53.096;6.062;2024-03-23T03:27:59;4.50;99.90
52899;DHT22;38763;53.096;6.062;2024-03-23T03:30:24;4.50;99.90
52899;DHT22;38763;53.096;6.062;2024-03-23T03:32:52;4.60;99.90
52899;DHT22;38763;53.096;6.062;2024-03-23T03:35:18;4.50;99.90
52899;DHT22;38763;53.096;6.062;2024-03-23T03:37:44;4.50;99.90
52899;DHT22;38763;53.096;6.062;2024-03-23T03:40:10;4.50;99.90
52899;DHT22;38763;53.096;6.062;2024-03-23T03:42:36;4.50;99.90
52899;DHT22;38763;53.096;6.062;2024-03-23T03:45:02;4.40;99.90
52899;DHT22;38763;53.096;6.062;2024-03-23T03:47:30;4.40;99.90
52899;DHT22;38763;53.096;6.062;2024-03-23T03:49:55;4.40;99.90
52899;DHT22;38763;53.096;6.062;2024-03-23T03:52:21;4.40;99.90
52899;DHT22;38763;53.096;6.062;2024-03-23T03:54:46;4.40;99.90
52899;DHT22;38763;53.096;6.062;2024-03-23T03:57:12;4.30;99.90
52899;DHT22;38763;53.096;6.062;2024-03-23T03:59:37;4.30;99.90
52899;DHT22;38763;53.096;6.062;2024-03-23T04:02:03;4.30;99.90
52899;DHT22;38763;53.096;6.062;2024-03-23T04:04:29;4.30;99.90
52899;DHT22;38763;53.096;6.062;2024-03-23T04:07:01;4.30;99.90
52899;DHT22;38763;53.096;6.062;2024-03-23T04:09:27;4.30;99.90
52899;DHT22;38763;53.096;6.062;2024-03-23T04:11:53;4.20;99.90
52899;DHT22;38763;53.096;6.062;2024-03-23T04:14:19;4.20;99.90
52899;DHT22;38763;53.096;6.062;2024-03-23T04:16:44;4.20;99.90
52899;DHT22;38763;53.096;6.062;2024-03-23T04:19:10;4.20;99.90
52899;DHT22;38763;53.096;6.062;2024-03-23T04:21:37;4.10;99.90
52899;DHT22;38763;53.096;6.062;2024-03-23T04:24:03;4.20;99.90
52899;DHT22;38763;53.096;6.062;2024-03-23T04:26:29;4.10;99.90
52899;DHT22;38763;53.096;6.062;2024-03-23T04:28:55;4.10;99.90
52899;DHT22;38763;53.096;6.062;2024-03-23T04:31:22;4.10;99.90
52899;DHT22;38763;53.096;6.062;2024-03-23T04:33:47;4.10;99.90
52899;DHT22;38763;53.096;6.062;2024-03-23T04:36:13;4.20;99.90
52899;DHT22;38763;53.096;6.062;2024-03-23T04:38:39;4.10;99.90
52899;DHT22;38763;53.096;6.062;2024-03-23T04:41:04;4.10;99.90
52899;DHT22;38763;53.096;6.062;2024-03-23T04:43:30;4.10;99.90
52899;DHT22;38763;53.096;6.062;2024-03-23T04:45:56;4.10;99.90
52899;DHT22;38763;53.096;6.062;2024-03-23T04:48:22;4.10;99.90
52899;DHT22;38763;53.096;6.062;2024-03-23T04:50:55;4.10;99.90
52899;DHT22;38763;53.096;6.062;2024-03-23T04:53:23;4.20;99.90
52899;DHT22;38763;53.096;6.062;2024-03-23T04:55:54;4.20;99.90
52899;DHT22;38763;53.096;6.062;2024-03-23T04:58:19;4.20;99.90
52899;DHT22;38763;53.096;6.062;2024-03-23T05:00:45;4.20;99.90
52899;DHT22;38763;53.096;6.062;2024-03-23T05:03:10;4.20;99.90
52899;DHT22;38763;53.096;6.062;2024-03-23T05:05:36;4.20;99.90
52899;DHT22;38763;53.096;6.062;2024-03-23T05:08:02;4.10;99.90
52899;DHT22;38763;53.096;6.062;2024-03-23T05:10:27;4.10;99.90
52899;DHT22;38763;53.096;6.062;2024-03-23T05:12:53;4.10;99.90
52899;DHT22;38763;53.096;6.062;2024-03-23T05:15:18;4.10;99.90
52899;DHT22;38763;53.096;6.062;2024-03-23T05:17:44;4.10;99.90
52899;DHT22;38763;53.096;6.062;2024-03-23T05:20:10;4.00;99.90
52899;DHT22;38763;53.096;6.062;2024-03-23T05:22:38;4.00;99.90
52899;DHT22;38763;53.096;6.062;2024-03-23T05:25:04;4.00;99.90
52899;DHT22;38763;53.096;6.062;2024-03-23T05:27:32;4.10;99.90
52899;DHT22;38763;53.096;6.062;2024-03-23T05:29:58;4.20;99.90
52899;DHT22;38763;53.096;6.062;2024-03-23T05:32:24;4.20;99.90
52899;DHT22;38763;53.096;6.062;2024-03-23T05:34:50;4.20;99.90
52899;DHT22;38763;53.096;6.062;2024-03-23T05:37:21;4.30;99.90
52899;DHT22;38763;53.096;6.062;2024-03-23T05:39:47;4.40;99.90
52899;DHT22;38763;53.096;6.062;2024-03-23T05:42:15;4.40;99.90
52899;DHT22;38763;53.096;6.062;2024-03-23T05:44:46;4.40;99.90
52899;DHT22;38763;53.096;6.062;2024-03-23T05:47:12;4.30;99.90
52899;DHT22;38763;53.096;6.062;2024-03-23T05:49:42;4.40;99.90
52899;DHT22;38763;53.096;6.062;2024-03-23T05:52:09;4.40;99.90
52899;DHT22;38763;53.096;6.062;2024-03-23T05:54:35;4.40;99.90
52899;DHT22;38763;53.096;6.062;2024-03-23T05:57:01;4.40;99.90
52899;DHT22;38763;53.096;6.062;2024-03-23T05:59:27;4.40;99.90
52899;DHT22;38763;53.096;6.062;2024-03-23T06:01:53;4.40;99.90
52899;DHT22;38763;53.096;6.062;2024-03-23T06:04:18;4.50;99.90
52899;DHT22;38763;53.096;6.062;2024-03-23T06:06:45;4.40;99.90
52899;DHT22;38763;53.096;6.062;2024-03-23T06:09:10;4.50;99.90
52899;DHT22;38763;53.096;6.062;2024-03-23T06:11:36;4.50;99.90
52899;DHT22;38763;53.096;6.062;2024-03-23T06:14:02;4.50;99.90
52899;DHT22;38763;53.096;6.062;2024-03-23T06:16:27;4.40;99.90
52899;DHT22;38763;53.096;6.062;2024-03-23T06:18:53;4.40;99.90
52899;DHT22;38763;53.096;6.062;2024-03-23T06:21:20;4.40;99.90
52899;DHT22;38763;53.096;6.062;2024-03-23T06:23:46;4.50;99.90
52899;DHT22;38763;53.096;6.062;2024-03-23T06:26:17;4.60;99.90
52899;DHT22;38763;53.096;6.062;2024-03-23T06:28:43;4.80;99.90
52899;DHT22;38763;53.096;6.062;2024-03-23T06:31:09;5.00;99.90
52899;DHT22;38763;53.096;6.062;2024-03-23T06:33:35;5.30;99.90
52899;DHT22;38763;53.096;6.062;2024-03-23T06:36:01;5.30;99.90
52899;DHT22;38763;53.096;6.062;2024-03-23T06:38:28;5.30;99.90
52899;DHT22;38763;53.096;6.062;2024-03-23T06:40:54;5.20;99.90
52899;DHT22;38763;53.096;6.062;2024-03-23T06:43:19;5.20;99.90
52899;DHT22;38763;53.096;6.062;2024-03-23T06:45:52;5.10;99.90
52899;DHT22;38763;53.096;6.062;2024-03-23T06:48:18;5.10;99.90
52899;DHT22;38763;53.096;6.062;2024-03-23T06:50:45;5.00;99.90
52899;DHT22;38763;53.096;6.062;2024-03-23T06:53:12;5.10;99.90
52899;DHT22;38763;53.096;6.062;2024-03-23T06:55:38;5.20;99.90
52899;DHT22;38763;53.096;6.062;2024-03-23T06:58:03;5.30;99.90
52899;DHT22;38763;53.096;6.062;2024-03-23T07:00:30;5.30;99.90
52899;DHT22;38763;53.096;6.062;2024-03-23T07:02:55;5.30;99.90
52899;DHT22;38763;53.096;6.062;2024-03-23T07:05:21;5.40;99.90
52899;DHT22;38763;53.096;6.062;2024-03-23T07:07:46;5.60;99.90
52899;DHT22;38763;53.096;6.062;2024-03-23T07:10:12;5.60;99.90
52899;DHT22;38763;53.096;6.062;2024-03-23T07:12:38;5.60;99.90
52899;DHT22;38763;53.096;6.062;2024-03-23T07:15:04;5.60;99.90
52899;DHT22;38763;53.096;6.062;2024-03-23T07:17:30;5.60;99.90
52899;DHT22;38763;53.096;6.062;2024-03-23T07:19:55;5.60;99.90
52899;DHT22;38763;53.096;6.062;2024-03-23T07:22:21;5.50;99.90
52899;DHT22;38763;53.096;6.062;2024-03-23T07:24:47;5.50;99.90
52899;DHT22;38763;53.096;6.062;2024-03-23T07:27:12;5.40;99.90
52899;DHT22;38763;53.096;6.062;2024-03-23T07:29:38;5.40;99.90
52899;DHT22;38763;53.096;6.062;2024-03-23T07:32:04;5.40;99.90
52899;DHT22;38763;53.096;6.062;2024-03-23T07:34:29;5.40;99.90
52899;DHT22;38763;53.096;6.062;2024-03-23T07:36:55;5.40;99.90
52899;DHT22;38763;53.096;6.062;2024-03-23T07:39:21;5.50;99.90
52899;DHT22;38763;53.096;6.062;2024-03-23T07:41:46;5.50;99.90
52899;DHT22;38763;53.096;6.062;2024-03-23T07:44:12;5.60;99.90
52899;DHT22;38763;53.096;6.062;2024-03-23T07:46:38;5.70;99.90
52899;DHT22;38763;53.096;6.062;2024-03-23T07:49:06;5.90;99.90
52899;DHT22;38763;53.096;6.062;2024-03-23T07:51:32;6.00;99.90
52899;DHT22;38763;53.096;6.062;2024-03-23T07:53:59;6.00;99.90
52899;DHT22;38763;53.096;6.062;2024-03-23T07:56:24;6.00;99.90
52899;DHT22;38763;53.096;6.062;2024-03-23T07:58:50;6.10;99.90
52899;DHT22;38763;53.096;6.062;2024-03-23T08:01:17;6.20;99.90
52899;DHT22;38763;53.096;6.062;2024-03-23T08:03:44;6.30;99.90
52899;DHT22;38763;53.096;6.062;2024-03-23T08:06:17;6.40;99.90
52899;DHT22;38763;53.096;6.062;2024-03-23T08:08:46;6.60;99.90
52899;DHT22;38763;53.096;6.062;2024-03-23T08:11:11;6.70;99.90
52899;DHT22;38763;53.096;6.062;2024-03-23T08:13:39;6.60;99.90
52899;DHT22;38763;53.096;6.062;2024-03-23T08:16:05;6.60;99.90
52899;DHT22;38763;53.096;6.062;2024-03-23T08:18:31;6.60;99.90
52899;DHT22;38763;53.096;6.062;2024-03-23T08:21:01;6.60;99.90
52899;DHT22;38763;53.096;6.062;2024-03-23T08:23:28;6.50;99.90
52899;DHT22;38763;53.096;6.062;2024-03-23T08:26:00;6.60;99.90
52899;DHT22;38763;53.096;6.062;2024-03-23T08:28:26;6.80;99.90
52899;DHT22;38763;53.096;6.062;2024-03-23T08:30:53;7.10;99.90
52899;DHT22;38763;53.096;6.062;2024-03-23T08:33:19;7.40;99.90
52899;DHT22;38763;53.096;6.062;2024-03-23T08:36:01;7.50;99.90
52899;DHT22;38763;53.096;6.062;2024-03-23T08:38:27;7.50;99.90
52899;DHT22;38763;53.096;6.062;2024-03-23T08:43:30;7.00;99.90
52899;DHT22;38763;53.096;6.062;2024-03-23T08:46:15;7.10;99.90
52899;DHT22;38763;53.096;6.062;2024-03-23T08:48:45;7.10;99.90
52899;DHT22;38763;53.096;6.062;2024-03-23T08:51:15;7.10;99.90
52899;DHT22;38763;53.096;6.062;2024-03-23T08:53:41;7.10;99.90
52899;DHT22;38763;53.096;6.062;2024-03-23T08:56:08;7.10;99.90
52899;DHT22;38763;53.096;6.062;2024-03-23T08:58:38;7.20;99.90
52899;DHT22;38763;53.096;6.062;2024-03-23T09:03:33;7.50;99.90
52899;DHT22;38763;53.096;6.062;2024-03-23T09:05:59;7.80;99.90
52899;DHT22;38763;53.096;6.062;2024-03-23T09:08:25;8.00;99.90
52899;DHT22;38763;53.096;6.062;2024-03-23T09:10:52;8.30;99.90
52899;DHT22;38763;53.096;6.062;2024-03-23T09:13:17;8.20;99.90
52899;DHT22;38763;53.096;6.062;2024-03-23T09:15:48;7.90;99.90
52899;DHT22;38763;53.096;6.062;2024-03-23T09:18:14;7.50;99.90
52899;DHT22;38763;53.096;6.062;2024-03-23T09:20:39;7.30;99.90
52899;DHT22;38763;53.096;6.062;2024-03-23T09:23:05;7.10;99.90
52899;DHT22;38763;53.096;6.062;2024-03-23T09:25:37;6.90;99.90
52899;DHT22;38763;53.096;6.062;2024-03-23T09:28:03;7.00;99.90
52899;DHT22;38763;53.096;6.062;2024-03-23T09:30:29;7.10;99.90
52899;DHT22;38763;53.096;6.062;2024-03-23T09:32:55;7.10;99.90
52899;DHT22;38763;53.096;6.062;2024-03-23T09:35:20;7.00;99.90
52899;DHT22;38763;53.096;6.062;2024-03-23T09:37:46;6.90;99.90
52899;DHT22;38763;53.096;6.062;2024-03-23T09:40:12;6.80;99.90
52899;DHT22;38763;53.096;6.062;2024-03-23T09:42:37;6.70;99.90
52899;DHT22;38763;53.096;6.062;2024-03-23T09:45:06;6.80;99.90
52899;DHT22;38763;53.096;6.062;2024-03-23T09:47:34;6.90;99.90
52899;DHT22;38763;53.096;6.062;2024-03-23T09:50:00;7.00;99.90
52899;DHT22;38763;53.096;6.062;2024-03-23T09:52:26;7.20;99.90
52899;DHT22;38763;53.096;6.062;2024-03-23T09:54:52;7.30;99.90
52899;DHT22;38763;53.096;6.062;2024-03-23T09:57:17;7.40;99.90
52899;DHT22;38763;53.096;6.062;2024-03-23T09:59:43;7.60;99.90
52899;DHT22;38763;53.096;6.062;2024-03-23T10:02:09;7.90;99.90
52899;DHT22;38763;53.096;6.062;2024-03-23T10:04:40;8.10;99.90
52899;DHT22;38763;53.096;6.062;2024-03-23T10:07:13;8.30;99.90
52899;DHT22;38763;53.096;6.062;2024-03-23T10:09:39;8.50;99.90
52899;DHT22;38763;53.096;6.062;2024-03-23T10:12:09;8.60;99.90
52899;DHT22;38763;53.096;6.062;2024-03-23T10:14:35;8.70;99.90
52899;DHT22;38763;53.096;6.062;2024-03-23T10:17:19;8.70;99.90
52899;DHT22;38763;53.096;6.062;2024-03-23T10:19:45;8.70;99.90
52899;DHT22;38763;53.096;6.062;2024-03-23T10:22:14;8.70;99.90
52899;DHT22;38763;53.096;6.062;2024-03-23T10:24:41;8.80;99.90
52899;DHT22;38763;53.096;6.062;2024-03-23T10:27:06;8.70;99.90
52899;DHT22;38763;53.096;6.062;2024-03-23T10:29:32;8.40;99.90
52899;DHT22;38763;53.096;6.062;2024-03-23T10:32:11;8.10;99.90
52899;DHT22;38763;53.096;6.062;2024-03-23T10:34:37;8.00;99.90
52899;DHT22;38763;53.096;6.062;2024-03-23T10:37:04;7.70;99.90
52899;DHT22;38763;53.096;6.062;2024-03-23T10:39:48;7.50;99.90
52899;DHT22;38763;53.096;6.062;2024-03-23T10:42:14;7.40;99.90
52899;DHT22;38763;53.096;6.062;2024-03-23T10:44:40;7.40;99.90
52899;DHT22;38763;53.096;6.062;2024-03-23T10:47:06;7.30;99.90
52899;DHT22;38763;53.096;6.062;2024-03-23T10:49:33;7.30;99.90
52899;DHT22;38763;53.096;6.062;2024-03-23T10:52:03;7.50;99.90
52899;DHT22;38763;53.096;6.062;2024-03-23T10:54:33;7.70;99.90
52899;DHT22;38763;53.096;6.062;2024-03-23T10:57:13;7.70;99.90
52899;DHT22;38763;53.096;6.062;2024-03-23T10:59:40;7.50;99.90
52899;DHT22;38763;53.096;6.062;2024-03-23T11:02:06;7.30;99.90
52899;DHT22;38763;53.096;6.062;2024-03-23T11:04:35;7.00;99.90
52899;DHT22;38763;53.096;6.062;2024-03-23T11:07:01;7.10;99.90
52899;DHT22;38763;53.096;6.062;2024-03-23T11:09:40;7.10;99.90
52899;DHT22;38763;53.096;6.062;2024-03-23T11:12:36;7.20;99.90
52899;DHT22;38763;53.096;6.062;2024-03-23T11:15:06;7.40;99.90
52899;DHT22;38763;53.096;6.062;2024-03-23T11:17:36;7.20;99.90
52899;DHT22;38763;53.096;6.062;2024-03-23T11:20:03;7.20;99.90
52899;DHT22;38763;53.096;6.062;2024-03-23T11:22:46;7.10;99.90
52899;DHT22;38763;53.096;6.062;2024-03-23T11:27:41;7.20;99.90
52899;DHT22;38763;53.096;6.062;2024-03-23T11:30:12;7.00;99.90
52899;DHT22;38763;53.096;6.062;2024-03-23T11:32:37;6.90;99.90
52899;DHT22;38763;53.096;6.062;2024-03-23T11:35:03;6.70;99.90
52899;DHT22;38763;53.096;6.062;2024-03-23T11:37:29;6.30;99.90
52899;DHT22;38763;53.096;6.062;2024-03-23T11:39:54;6.20;99.90
52899;DHT22;38763;53.096;6.062;2024-03-23T11:42:20;6.10;99.90
52899;DHT22;38763;53.096;6.062;2024-03-23T11:44:47;6.30;99.90
52899;DHT22;38763;53.096;6.062;2024-03-23T11:47:13;6.40;99.90
52899;DHT22;38763;53.096;6.062;2024-03-23T11:49:38;6.80;99.90
52899;DHT22;38763;53.096;6.062;2024-03-23T11:52:06;7.20;99.90
52899;DHT22;38763;53.096;6.062;2024-03-23T11:54:33;7.20;99.90
52899;DHT22;38763;53.096;6.062;2024-03-23T11:57:00;7.20;99.90
52899;DHT22;38763;53.096;6.062;2024-03-23T11:59:38;7.20;99.90
52899;DHT22;38763;53.096;6.062;2024-03-23T12:02:12;7.30;99.90
52899;DHT22;38763;53.096;6.062;2024-03-23T12:04:41;7.20;99.90
52899;DHT22;38763;53.096;6.062;2024-03-23T12:07:14;6.90;99.90
52899;DHT22;38763;53.096;6.062;2024-03-23T12:09:41;6.90;99.90
52899;DHT22;38763;53.096;6.062;2024-03-23T12:12:17;7.00;99.90
52899;DHT22;38763;53.096;6.062;2024-03-23T12:15:05;6.90;99.90
52899;DHT22;38763;53.096;6.062;2024-03-23T12:17:32;6.90;99.90
52899;DHT22;38763;53.096;6.062;2024-03-23T12:19:58;6.80;99.90
52899;DHT22;38763;53.096;6.062;2024-03-23T12:22:24;6.60;99.90
52899;DHT22;38763;53.096;6.062;2024-03-23T12:24:50;6.40;99.90
52899;DHT22;38763;53.096;6.062;2024-03-23T12:27:16;6.20;99.90
52899;DHT22;38763;53.096;6.062;2024-03-23T12:29:42;6.10;99.90
52899;DHT22;38763;53.096;6.062;2024-03-23T12:32:11;6.20;99.90
52899;DHT22;38763;53.096;6.062;2024-03-23T12:34:38;5.90;99.90
52899;DHT22;38763;53.096;6.062;2024-03-23T12:37:03;5.90;99.90
52899;DHT22;38763;53.096;6.062;2024-03-23T12:39:29;5.90;99.90
52899;DHT22;38763;53.096;6.062;2024-03-23T12:41:55;6.10;99.90
52899;DHT22;38763;53.096;6.062;2024-03-23T12:44:20;6.20;99.90
52899;DHT22;38763;53.096;6.062;2024-03-23T12:46:49;6.20;99.90
52899;DHT22;38763;53.096;6.062;2024-03-23T12:49:14;6.30;99.90
52899;DHT22;38763;53.096;6.062;2024-03-23T12:51:48;6.10;99.90
52899;DHT22;38763;53.096;6.062;2024-03-23T12:54:13;5.90;99.90
52899;DHT22;38763;53.096;6.062;2024-03-23T12:56:39;5.80;99.90
52899;DHT22;38763;53.096;6.062;2024-03-23T12:59:05;5.80;99.90
52899;DHT22;38763;53.096;6.062;2024-03-23T13:01:30;6.10;99.90
52899;DHT22;38763;53.096;6.062;2024-03-23T13:03:56;6.30;99.90
52899;DHT22;38763;53.096;6.062;2024-03-23T13:06:22;6.50;99.90
52899;DHT22;38763;53.096;6.062;2024-03-23T13:08:47;6.80;99.90
52899;DHT22;38763;53.096;6.062;2024-03-23T13:11:15;7.00;99.90
52899;DHT22;38763;53.096;6.062;2024-03-23T13:13:41;7.10;99.90
52899;DHT22;38763;53.096;6.062;2024-03-23T13:16:07;7.20;99.90
52899;DHT22;38763;53.096;6.062;2024-03-23T13:18:33;7.30;99.90
52899;DHT22;38763;53.096;6.062;2024-03-23T13:20:59;7.20;99.90
52899;DHT22;38763;53.096;6.062;2024-03-23T13:23:25;7.00;99.90
52899;DHT22;38763;53.096;6.062;2024-03-23T13:25:55;6.80;99.90
52899;DHT22;38763;53.096;6.062;2024-03-23T13:28:21;6.70;99.90
52899;DHT22;38763;53.096;6.062;2024-03-23T13:30:57;6.80;99.90
52899;DHT22;38763;53.096;6.062;2024-03-23T13:33:29;6.70;99.90
52899;DHT22;38763;53.096;6.062;2024-03-23T13:35:55;6.80;99.90
52899;DHT22;38763;53.096;6.062;2024-03-23T13:38:22;6.90;99.90
52899;DHT22;38763;53.096;6.062;2024-03-23T13:40:55;6.90;99.90
52899;DHT22;38763;53.096;6.062;2024-03-23T13:43:22;7.10;99.90
52899;DHT22;38763;53.096;6.062;2024-03-23T13:45:49;7.20;99.90
52899;DHT22;38763;53.096;6.062;2024-03-23T13:48:26;7.20;99.90
52899;DHT22;38763;53.096;6.062;2024-03-23T13:53:24;6.80;99.90
52899;DHT22;38763;53.096;6.062;2024-03-23T13:55:50;6.80;99.90
52899;DHT22;38763;53.096;6.062;2024-03-23T13:58:16;6.70;99.90
52899;DHT22;38763;53.096;6.062;2024-03-23T14:00:42;6.60;99.90
52899;DHT22;38763;53.096;6.062;2024-03-23T14:03:12;6.70;99.90
52899;DHT22;38763;53.096;6.062;2024-03-23T14:05:38;6.70;99.90
52899;DHT22;38763;53.096;6.062;2024-03-23T14:08:08;6.80;99.90
52899;DHT22;38763;53.096;6.062;2024-03-23T14:10:34;6.90;99.90
52899;DHT22;38763;53.096;6.062;2024-03-23T14:13:01;7.10;99.90
52899;DHT22;38763;53.096;6.062;2024-03-23T14:15:27;7.20;99.90
52899;DHT22;38763;53.096;6.062;2024-03-23T14:17:53;7.30;99.90
52899;DHT22;38763;53.096;6.062;2024-03-23T14:20:20;7.40;99.90
52899;DHT22;38763;53.096;6.062;2024-03-23T14:22:46;7.50;99.90
52899;DHT22;38763;53.096;6.062;2024-03-23T14:25:11;7.70;99.90
52899;DHT22;38763;53.096;6.062;2024-03-23T14:27:37;7.70;99.90
52899;DHT22;38763;53.096;6.062;2024-03-23T14:30:04;7.70;99.90
52899;DHT22;38763;53.096;6.062;2024-03-23T14:32:34;7.60;1.00
52899;DHT22;38763;53.096;6.062;2024-03-23T14:35:08;7.40;99.90
52899;DHT22;38763;53.096;6.062;2024-03-23T14:37:37;7.10;1.00
52899;DHT22;38763;53.096;6.062;2024-03-23T14:40:04;6.80;1.00
52899;DHT22;38763;53.096;6.062;2024-03-23T14:42:30;6.80;99.90
52899;DHT22;38763;53.096;6.062;2024-03-23T14:44:58;6.80;1.00
52899;DHT22;38763;53.096;6.062;2024-03-23T14:47:23;6.80;1.00
52899;DHT22;38763;53.096;6.062;2024-03-23T14:49:49;6.90;1.00
52899;DHT22;38763;53.096;6.062;2024-03-23T14:52:16;7.00;1.00
52899;DHT22;38763;53.096;6.062;2024-03-23T14:54:43;7.10;99.90
52899;DHT22;38763;53.096;6.062;2024-03-23T14:57:09;7.20;1.00
52899;DHT22;38763;53.096;6.062;2024-03-23T14:59:35;7.30;1.00
52899;DHT22;38763;53.096;6.062;2024-03-23T15:02:12;7.30;1.00
52899;DHT22;38763;53.096;6.062;2024-03-23T15:04:38;7.20;99.90
52899;DHT22;38763;53.096;6.062;2024-03-23T15:07:07;7.30;99.90
52899;DHT22;38763;53.096;6.062;2024-03-23T15:09:32;7.30;1.00
52899;DHT22;38763;53.096;6.062;2024-03-23T15:11:58;7.50;1.00
52899;DHT22;38763;53.096;6.062;2024-03-23T15:14:24;7.50;1.00
52899;DHT22;38763;53.096;6.062;2024-03-23T15:16:50;7.50;99.90
52899;DHT22;38763;53.096;6.062;2024-03-23T15:19:18;7.50;99.90
52899;DHT22;38763;53.096;6.062;2024-03-23T15:21:44;7.50;1.00
52899;DHT22;38763;53.096;6.062;2024-03-23T15:24:09;7.50;1.00
52899;DHT22;38763;53.096;6.062;2024-03-23T15:26:37;7.50;1.00
52899;DHT22;38763;53.096;6.062;2024-03-23T15:29:02;7.50;1.00
52899;DHT22;38763;53.096;6.062;2024-03-23T15:31:28;7.40;1.00
52899;DHT22;38763;53.096;6.062;2024-03-23T15:33:55;7.40;1.00
52899;DHT22;38763;53.096;6.062;2024-03-23T15:36:20;7.40;1.00
52899;DHT22;38763;53.096;6.062;2024-03-23T15:38:46;7.40;99.90
52899;DHT22;38763;53.096;6.062;2024-03-23T15:41:14;7.40;57.70
52899;DHT22;38763;53.096;6.062;2024-03-23T15:43:40;7.30;88.80
52899;DHT22;38763;53.096;6.062;2024-03-23T15:46:07;7.20;99.90
52899;DHT22;38763;53.096;6.062;2024-03-23T15:48:33;7.20;99.90
52899;DHT22;38763;53.096;6.062;2024-03-23T15:51:02;7.10;99.90
52899;DHT22;38763;53.096;6.062;2024-03-23T15:53:30;7.10;99.90
52899;DHT22;38763;53.096;6.062;2024-03-23T15:55:59;7.10;1.00
52899;DHT22;38763;53.096;6.062;2024-03-23T15:58:26;7.10;99.90
52899;DHT22;38763;53.096;6.062;2024-03-23T16:01:02;7.10;99.90
52899;DHT22;38763;53.096;6.062;2024-03-23T16:03:29;7.10;99.90
52899;DHT22;38763;53.096;6.062;2024-03-23T16:05:56;7.20;1.00
52899;DHT22;38763;53.096;6.062;2024-03-23T16:08:22;7.20;1.00
52899;DHT22;38763;53.096;6.062;2024-03-23T16:10:48;7.20;1.00
52899;DHT22;38763;53.096;6.062;2024-03-23T16:13:14;7.20;1.00
52899;DHT22;38763;53.096;6.062;2024-03-23T16:15:40;7.20;1.00
52899;DHT22;38763;53.096;6.062;2024-03-23T16:18:06;7.10;1.00
52899;DHT22;38763;53.096;6.062;2024-03-23T16:20:31;7.10;1.00
52899;DHT22;38763;53.096;6.062;2024-03-23T16:23:00;7.00;1.00
52899;DHT22;38763;53.096;6.062;2024-03-23T16:25:26;7.00;1.00
52899;DHT22;38763;53.096;6.062;2024-03-23T16:27:52;6.90;1.00
52899;DHT22;38763;53.096;6.062;2024-03-23T16:30:18;6.90;1.00
52899;DHT22;38763;53.096;6.062;2024-03-23T16:32:44;7.00;1.00
52899;DHT22;38763;53.096;6.062;2024-03-23T16:35:09;7.00;1.00
52899;DHT22;38763;53.096;6.062;2024-03-23T16:37:37;7.00;59.30
52899;DHT22;38763;53.096;6.062;2024-03-23T16:40:06;7.00;99.90
52899;DHT22;38763;53.096;6.062;2024-03-23T16:42:33;7.10;99.90
52899;DHT22;38763;53.096;6.062;2024-03-23T16:44:59;7.10;99.90
52899;DHT22;38763;53.096;6.062;2024-03-23T16:47:25;7.10;34.80
52899;DHT22;38763;53.096;6.062;2024-03-23T16:49:50;7.10;1.00
52899;DHT22;38763;53.096;6.062;2024-03-23T16:52:16;7.00;99.90
52899;DHT22;38763;53.096;6.062;2024-03-23T16:54:42;7.10;99.90